sensor_id;sensor_type;location;lat;lon;timestamp;temperature;humidity
26687;DHT22;14298;50.900;4.648;2023-03-01T00:01:49;-2.90;97.10
26687;DHT22;14298;50.900;4.648;2023-03-01T00:04:17;-2.90;97.10
26687;DHT22;14298;50.900;4.648;2023-03-01T00:06:46;-3.00;97.10
26687;DHT22;14298;50.900;4.648;2023-03-01T00:09:15;-3.10;97.10
26687;DHT22;14298;50.900;4.648;2023-03-01T00:11:44;-3.10;97.10
26687;DHT22;14298;50.900;4.648;2023-03-01T00:14:13;-3.10;97.10
26687;DHT22;14298;50.900;4.648;2023-03-01T00:16:44;-3.00;97.10
26687;DHT22;14298;50.900;4.648;2023-03-01T00:19:32;-3.00;97.10
26687;DHT22;14298;50.900;4.648;2023-03-01T00:22:00;-3.10;97.10
26687;DHT22;14298;50.900;4.648;2023-03-01T00:24:29;-3.10;97.10
26687;DHT22;14298;50.900;4.648;2023-03-01T00:26:57;-3.10;97.10
26687;DHT22;14298;50.900;4.648;2023-03-01T00:29:26;-3.10;97.10
26687;DHT22;14298;50.900;4.648;2023-03-01T00:31:54;-3.00;97.10
26687;DHT22;14298;50.900;4.648;2023-03-01T00:34:22;-3.00;97.10
26687;DHT22;14298;50.900;4.648;2023-03-01T00:36:51;-3.00;97.10
26687;DHT22;14298;50.900;4.648;2023-03-01T00:39:19;-3.10;97.10
26687;DHT22;14298;50.900;4.648;2023-03-01T00:41:47;-3.10;97.10
26687;DHT22;14298;50.900;4.648;2023-03-01T00:44:16;-3.20;97.10
26687;DHT22;14298;50.900;4.648;2023-03-01T00:46:45;-3.30;97.10
26687;DHT22;14298;50.900;4.648;2023-03-01T00:49:13;-3.40;97.10
26687;DHT22;14298;50.900;4.648;2023-03-01T00:51:42;-3.40;97.10
26687;DHT22;14298;50.900;4.648;2023-03-01T00:54:10;-3.50;97.10
26687;DHT22;14298;50.900;4.648;2023-03-01T00:56:38;-3.50;97.10
26687;DHT22;14298;50.900;4.648;2023-03-01T00:59:07;-3.50;97.10
26687;DHT22;14298;50.900;4.648;2023-03-01T01:01:35;-3.50;97.10
26687;DHT22;14298;50.900;4.648;2023-03-01T01:04:09;-3.50;97.10
26687;DHT22;14298;50.900;4.648;2023-03-01T01:06:44;-3.40;97.10
26687;DHT22;14298;50.900;4.648;2023-03-01T01:09:16;-3.30;97.10
26687;DHT22;14298;50.900;4.648;2023-03-01T01:11:49;-3.30;97.10
26687;DHT22;14298;50.900;4.648;2023-03-01T01:14:19;-3.40;97.10
26687;DHT22;14298;50.900;4.648;2023-03-01T01:17:07;-3.50;97.10
26687;DHT22;14298;50.900;4.648;2023-03-01T01:19:35;-3.60;97.10
26687;DHT22;14298;50.900;4.648;2023-03-01T01:22:04;-3.70;97.10
26687;DHT22;14298;50.900;4.648;2023-03-01T01:24:32;-3.60;97.10
26687;DHT22;14298;50.900;4.648;2023-03-01T01:27:00;-3.60;97.10
26687;DHT22;14298;50.900;4.648;2023-03-01T01:29:29;-3.50;97.10
26687;DHT22;14298;50.900;4.648;2023-03-01T01:31:57;-3.60;97.10
26687;DHT22;14298;50.900;4.648;2023-03-01T01:34:25;-3.60;97.10
26687;DHT22;14298;50.900;4.648;2023-03-01T01:36:54;-3.70;97.10
26687;DHT22;14298;50.900;4.648;2023-03-01T01:39:23;-3.70;97.10
26687;DHT22;14298;50.900;4.648;2023-03-01T01:41:51;-3.70;97.10
26687;DHT22;14298;50.900;4.648;2023-03-01T01:44:25;-3.70;97.10
26687;DHT22;14298;50.900;4.648;2023-03-01T01:46:56;-3.70;97.10
26687;DHT22;14298;50.900;4.648;2023-03-01T01:52:31;-3.70;97.10
26687;DHT22;14298;50.900;4.648;2023-03-01T01:55:08;-3.70;97.10
26687;DHT22;14298;50.900;4.648;2023-03-01T01:57:58;-3.60;97.10
26687;DHT22;14298;50.900;4.648;2023-03-01T02:00:28;-3.60;97.10
26687;DHT22;14298;50.900;4.648;2023-03-01T02:03:11;-3.70;97.10
26687;DHT22;14298;50.900;4.648;2023-03-01T02:05:51;-3.70;97.10
26687;DHT22;14298;50.900;4.648;2023-03-01T02:08:22;-3.70;97.10
26687;DHT22;14298;50.900;4.648;2023-03-01T02:10:52;-3.70;97.10
26687;DHT22;14298;50.900;4.648;2023-03-01T02:13:23;-3.70;97.10
26687;DHT22;14298;50.900;4.648;2023-03-01T02:16:11;-3.70;97.10
26687;DHT22;14298;50.900;4.648;2023-03-01T02:18:41;-3.80;97.10
26687;DHT22;14298;50.900;4.648;2023-03-01T02:21:28;-3.90;97.10
26687;DHT22;14298;50.900;4.648;2023-03-01T02:23:54;-4.00;97.10
26687;DHT22;14298;50.900;4.648;2023-03-01T02:26:45;-4.00;97.10
26687;DHT22;14298;50.900;4.648;2023-03-01T02:29:12;-4.10;97.10
26687;DHT22;14298;50.900;4.648;2023-03-01T02:31:41;-4.10;97.10
26687;DHT22;14298;50.900;4.648;2023-03-01T02:34:12;-4.20;97.10
26687;DHT22;14298;50.900;4.648;2023-03-01T02:36:51;-4.10;97.10
26687;DHT22;14298;50.900;4.648;2023-03-01T02:39:18;-4.20;97.10
26687;DHT22;14298;50.900;4.648;2023-03-01T02:41:50;-4.10;97.10
26687;DHT22;14298;50.900;4.648;2023-03-01T02:44:19;-4.10;97.10
26687;DHT22;14298;50.900;4.648;2023-03-01T02:46:50;-4.10;97.10
26687;DHT22;14298;50.900;4.648;2023-03-01T02:49:26;-4.10;97.10
26687;DHT22;14298;50.900;4.648;2023-03-01T02:52:17;-4.20;97.10
26687;DHT22;14298;50.900;4.648;2023-03-01T02:55:04;-4.20;97.10
26687;DHT22;14298;50.900;4.648;2023-03-01T02:57:34;-4.20;97.10
26687;DHT22;14298;50.900;4.648;2023-03-01T03:00:06;-4.30;97.10
26687;DHT22;14298;50.900;4.648;2023-03-01T03:02:36;-4.30;97.10
26687;DHT22;14298;50.900;4.648;2023-03-01T03:05:14;-4.20;97.10
26687;DHT22;14298;50.900;4.648;2023-03-01T03:07:44;-4.20;97.10
26687;DHT22;14298;50.900;4.648;2023-03-01T03:13:12;-4.20;97.10
26687;DHT22;14298;50.900;4.648;2023-03-01T03:15:41;-4.40;97.10
26687;DHT22;14298;50.900;4.648;2023-03-01T03:18:13;-4.40;97.10
26687;DHT22;14298;50.900;4.648;2023-03-01T03:20:43;-4.40;97.10
26687;DHT22;14298;50.900;4.648;2023-03-01T03:23:13;-4.30;97.10
26687;DHT22;14298;50.900;4.648;2023-03-01T03:25:41;-4.40;97.10
26687;DHT22;14298;50.900;4.648;2023-03-01T03:28:10;-4.40;97.10
26687;DHT22;14298;50.900;4.648;2023-03-01T03:30:40;-4.40;97.10
26687;DHT22;14298;50.900;4.648;2023-03-01T03:33:10;-4.50;97.10
26687;DHT22;14298;50.900;4.648;2023-03-01T03:35:42;-4.60;97.10
26687;DHT22;14298;50.900;4.648;2023-03-01T03:38:12;-4.50;97.10
26687;DHT22;14298;50.900;4.648;2023-03-01T03:40:49;-4.50;97.10
26687;DHT22;14298;50.900;4.648;2023-03-01T03:43:20;-4.40;97.10
26687;DHT22;14298;50.900;4.648;2023-03-01T03:45:50;-4.40;97.10
26687;DHT22;14298;50.900;4.648;2023-03-01T03:48:20;-4.40;97.10
26687;DHT22;14298;50.900;4.648;2023-03-01T03:50:51;-4.50;97.10
26687;DHT22;14298;50.900;4.648;2023-03-01T03:53:21;-4.60;97.10
26687;DHT22;14298;50.900;4.648;2023-03-01T03:55:50;-4.60;97.10
26687;DHT22;14298;50.900;4.648;2023-03-01T03:58:20;-4.60;97.10
26687;DHT22;14298;50.900;4.648;2023-03-01T04:00:52;-4.60;97.10
26687;DHT22;14298;50.900;4.648;2023-03-01T04:03:40;-4.70;97.10
26687;DHT22;14298;50.900;4.648;2023-03-01T04:06:09;-4.50;97.10
26687;DHT22;14298;50.900;4.648;2023-03-01T04:08:37;-4.40;97.10
26687;DHT22;14298;50.900;4.648;2023-03-01T04:11:06;-4.40;97.10
26687;DHT22;14298;50.900;4.648;2023-03-01T04:13:54;-4.50;97.10
26687;DHT22;14298;50.900;4.648;2023-03-01T04:16:24;-4.60;97.10
26687;DHT22;14298;50.900;4.648;2023-03-01T04:19:12;-4.50;97.10
26687;DHT22;14298;50.900;4.648;2023-03-01T04:21:42;-4.50;97.10
26687;DHT22;14298;50.900;4.648;2023-03-01T04:24:10;-4.60;97.10
26687;DHT22;14298;50.900;4.648;2023-03-01T04:26:39;-4.60;97.10
26687;DHT22;14298;50.900;4.648;2023-03-01T04:29:08;-4.70;97.10
26687;DHT22;14298;50.900;4.648;2023-03-01T04:31:55;-4.80;97.10
26687;DHT22;14298;50.900;4.648;2023-03-01T04:34:24;-4.90;97.10
26687;DHT22;14298;50.900;4.648;2023-03-01T04:36:54;-4.80;97.10
26687;DHT22;14298;50.900;4.648;2023-03-01T04:39:22;-4.70;97.10
26687;DHT22;14298;50.900;4.648;2023-03-01T04:41:50;-4.60;97.10
26687;DHT22;14298;50.900;4.648;2023-03-01T04:44:19;-4.60;97.10
26687;DHT22;14298;50.900;4.648;2023-03-01T04:46:49;-4.70;97.10
26687;DHT22;14298;50.900;4.648;2023-03-01T04:49:17;-4.60;97.10
26687;DHT22;14298;50.900;4.648;2023-03-01T04:51:46;-4.60;97.10
26687;DHT22;14298;50.900;4.648;2023-03-01T04:54:14;-4.60;97.10
26687;DHT22;14298;50.900;4.648;2023-03-01T04:56:43;-4.70;97.10
26687;DHT22;14298;50.900;4.648;2023-03-01T04:59:12;-4.80;97.10
26687;DHT22;14298;50.900;4.648;2023-03-01T05:01:40;-4.80;97.10
26687;DHT22;14298;50.900;4.648;2023-03-01T05:04:10;-4.90;97.10
26687;DHT22;14298;50.900;4.648;2023-03-01T05:06:39;-5.00;97.10
26687;DHT22;14298;50.900;4.648;2023-03-01T05:09:08;-5.00;97.10
26687;DHT22;14298;50.900;4.648;2023-03-01T05:11:38;-5.00;97.10
26687;DHT22;14298;50.900;4.648;2023-03-01T05:14:07;-5.00;97.10
26687;DHT22;14298;50.900;4.648;2023-03-01T05:16:36;-5.00;97.10
26687;DHT22;14298;50.900;4.648;2023-03-01T05:19:06;-5.00;97.10
26687;DHT22;14298;50.900;4.648;2023-03-01T05:21:37;-5.00;97.10
26687;DHT22;14298;50.900;4.648;2023-03-01T05:24:07;-5.00;97.10
26687;DHT22;14298;50.900;4.648;2023-03-01T05:26:37;-5.10;97.10
26687;DHT22;14298;50.900;4.648;2023-03-01T05:29:07;-5.20;97.10
26687;DHT22;14298;50.900;4.648;2023-03-01T05:31:37;-5.30;97.10
26687;DHT22;14298;50.900;4.648;2023-03-01T05:34:05;-5.20;97.10
26687;DHT22;14298;50.900;4.648;2023-03-01T05:36:33;-5.20;97.10
26687;DHT22;14298;50.900;4.648;2023-03-01T05:39:02;-5.20;97.10
26687;DHT22;14298;50.900;4.648;2023-03-01T05:41:30;-5.10;97.10
26687;DHT22;14298;50.900;4.648;2023-03-01T05:43:59;-5.10;97.10
26687;DHT22;14298;50.900;4.648;2023-03-01T05:46:27;-5.10;97.10
26687;DHT22;14298;50.900;4.648;2023-03-01T05:48:56;-5.10;97.10
26687;DHT22;14298;50.900;4.648;2023-03-01T05:51:24;-5.10;97.10
26687;DHT22;14298;50.900;4.648;2023-03-01T05:53:53;-5.20;97.10
26687;DHT22;14298;50.900;4.648;2023-03-01T05:56:21;-5.30;97.10
26687;DHT22;14298;50.900;4.648;2023-03-01T05:58:50;-5.30;97.10
26687;DHT22;14298;50.900;4.648;2023-03-01T06:01:18;-5.30;97.10
26687;DHT22;14298;50.900;4.648;2023-03-01T06:03:46;-5.40;97.10
26687;DHT22;14298;50.900;4.648;2023-03-01T06:06:14;-5.40;97.10
26687;DHT22;14298;50.900;4.648;2023-03-01T06:08:43;-5.40;97.10
26687;DHT22;14298;50.900;4.648;2023-03-01T06:11:11;-5.40;97.10
26687;DHT22;14298;50.900;4.648;2023-03-01T06:13:41;-5.40;97.10
26687;DHT22;14298;50.900;4.648;2023-03-01T06:16:10;-5.30;97.10
26687;DHT22;14298;50.900;4.648;2023-03-01T06:18:39;-5.30;97.10
26687;DHT22;14298;50.900;4.648;2023-03-01T06:21:08;-5.30;97.10
26687;DHT22;14298;50.900;4.648;2023-03-01T06:23:37;-5.30;97.10
26687;DHT22;14298;50.900;4.648;2023-03-01T06:26:07;-5.40;97.10
26687;DHT22;14298;50.900;4.648;2023-03-01T06:28:35;-5.40;97.10
26687;DHT22;14298;50.900;4.648;2023-03-01T06:31:04;-5.40;97.10
26687;DHT22;14298;50.900;4.648;2023-03-01T06:33:34;-5.40;97.10
26687;DHT22;14298;50.900;4.648;2023-03-01T06:36:04;-5.50;97.10
26687;DHT22;14298;50.900;4.648;2023-03-01T06:38:32;-5.30;97.10
26687;DHT22;14298;50.900;4.648;2023-03-01T06:41:01;-5.20;97.10
26687;DHT22;14298;50.900;4.648;2023-03-01T06:43:29;-5.20;97.10
26687;DHT22;14298;50.900;4.648;2023-03-01T06:45:58;-5.20;97.10
26687;DHT22;14298;50.900;4.648;2023-03-01T06:48:26;-5.20;97.10
26687;DHT22;14298;50.900;4.648;2023-03-01T06:51:02;-5.10;97.10
26687;DHT22;14298;50.900;4.648;2023-03-01T06:53:28;-5.10;97.10
26687;DHT22;14298;50.900;4.648;2023-03-01T06:55:58;-5.10;97.10
26687;DHT22;14298;50.900;4.648;2023-03-01T06:58:27;-5.00;97.10
26687;DHT22;14298;50.900;4.648;2023-03-01T07:00:55;-5.00;97.10
26687;DHT22;14298;50.900;4.648;2023-03-01T07:03:24;-5.00;97.10
26687;DHT22;14298;50.900;4.648;2023-03-01T07:05:52;-5.00;97.10
26687;DHT22;14298;50.900;4.648;2023-03-01T07:08:20;-4.90;97.10
26687;DHT22;14298;50.900;4.648;2023-03-01T07:10:54;-5.00;97.10
26687;DHT22;14298;50.900;4.648;2023-03-01T07:13:19;-4.90;97.10
26687;DHT22;14298;50.900;4.648;2023-03-01T07:15:47;-4.80;97.10
26687;DHT22;14298;50.900;4.648;2023-03-01T07:18:15;-4.70;97.10
26687;DHT22;14298;50.900;4.648;2023-03-01T07:20:44;-4.60;97.10
26687;DHT22;14298;50.900;4.648;2023-03-01T07:23:13;-4.60;97.10
26687;DHT22;14298;50.900;4.648;2023-03-01T07:25:42;-4.50;97.10
26687;DHT22;14298;50.900;4.648;2023-03-01T07:28:10;-4.40;97.10
26687;DHT22;14298;50.900;4.648;2023-03-01T07:30:39;-4.30;97.10
26687;DHT22;14298;50.900;4.648;2023-03-01T07:33:07;-4.20;97.10
26687;DHT22;14298;50.900;4.648;2023-03-01T07:35:36;-4.10;97.10
26687;DHT22;14298;50.900;4.648;2023-03-01T07:38:04;-3.90;97.10
26687;DHT22;14298;50.900;4.648;2023-03-01T07:40:32;-3.80;97.10
26687;DHT22;14298;50.900;4.648;2023-03-01T07:43:01;-3.50;97.10
26687;DHT22;14298;50.900;4.648;2023-03-01T07:45:29;-3.20;97.10
26687;DHT22;14298;50.900;4.648;2023-03-01T07:47:58;-2.80;97.10
26687;DHT22;14298;50.900;4.648;2023-03-01T07:50:26;-2.30;97.10
26687;DHT22;14298;50.900;4.648;2023-03-01T07:52:54;-1.80;97.10
26687;DHT22;14298;50.900;4.648;2023-03-01T07:55:23;-1.40;97.10
26687;DHT22;14298;50.900;4.648;2023-03-01T07:57:51;-1.10;97.10
26687;DHT22;14298;50.900;4.648;2023-03-01T08:00:20;-0.70;97.10
26687;DHT22;14298;50.900;4.648;2023-03-01T08:02:48;-0.30;97.10
26687;DHT22;14298;50.900;4.648;2023-03-01T08:05:16;0.00;97.10
26687;DHT22;14298;50.900;4.648;2023-03-01T08:07:45;0.30;97.10
26687;DHT22;14298;50.900;4.648;2023-03-01T08:10:13;0.70;97.10
26687;DHT22;14298;50.900;4.648;2023-03-01T08:12:41;1.00;97.10
26687;DHT22;14298;50.900;4.648;2023-03-01T08:15:10;1.20;97.10
26687;DHT22;14298;50.900;4.648;2023-03-01T08:17:39;1.40;97.10
26687;DHT22;14298;50.900;4.648;2023-03-01T08:20:08;1.50;97.10
26687;DHT22;14298;50.900;4.648;2023-03-01T08:22:39;1.50;97.10
26687;DHT22;14298;50.900;4.648;2023-03-01T08:25:08;1.70;97.10
26687;DHT22;14298;50.900;4.648;2023-03-01T08:27:37;1.60;97.10
26687;DHT22;14298;50.900;4.648;2023-03-01T08:30:06;1.60;97.10
26687;DHT22;14298;50.900;4.648;2023-03-01T08:32:39;1.70;97.10
26687;DHT22;14298;50.900;4.648;2023-03-01T08:35:08;1.90;97.10
26687;DHT22;14298;50.900;4.648;2023-03-01T08:37:36;2.10;97.10
26687;DHT22;14298;50.900;4.648;2023-03-01T08:40:05;2.20;97.10
26687;DHT22;14298;50.900;4.648;2023-03-01T08:42:44;2.30;97.10
26687;DHT22;14298;50.900;4.648;2023-03-01T08:45:13;2.50;97.10
26687;DHT22;14298;50.900;4.648;2023-03-01T08:47:42;2.80;97.10
26687;DHT22;14298;50.900;4.648;2023-03-01T08:50:11;2.60;97.10
26687;DHT22;14298;50.900;4.648;2023-03-01T08:52:40;2.70;97.10
26687;DHT22;14298;50.900;4.648;2023-03-01T08:55:09;2.80;97.10
26687;DHT22;14298;50.900;4.648;2023-03-01T08:57:37;3.20;97.10
26687;DHT22;14298;50.900;4.648;2023-03-01T09:00:07;3.80;97.10
26687;DHT22;14298;50.900;4.648;2023-03-01T09:02:35;3.80;97.10
26687;DHT22;14298;50.900;4.648;2023-03-01T09:05:23;3.90;97.10
26687;DHT22;14298;50.900;4.648;2023-03-01T09:07:52;3.70;97.10
26687;DHT22;14298;50.900;4.648;2023-03-01T09:10:20;4.00;97.10
26687;DHT22;14298;50.900;4.648;2023-03-01T09:12:48;4.80;97.10
26687;DHT22;14298;50.900;4.648;2023-03-01T09:15:17;5.60;97.10
26687;DHT22;14298;50.900;4.648;2023-03-01T09:17:45;6.10;97.10
26687;DHT22;14298;50.900;4.648;2023-03-01T09:20:14;5.70;97.10
26687;DHT22;14298;50.900;4.648;2023-03-01T09:22:42;6.00;97.10
26687;DHT22;14298;50.900;4.648;2023-03-01T09:25:11;5.60;97.10
26687;DHT22;14298;50.900;4.648;2023-03-01T09:27:58;5.40;97.10
26687;DHT22;14298;50.900;4.648;2023-03-01T09:30:27;4.90;97.10
26687;DHT22;14298;50.900;4.648;2023-03-01T09:32:56;5.00;97.10
26687;DHT22;14298;50.900;4.648;2023-03-01T09:35:25;5.80;97.10
26687;DHT22;14298;50.900;4.648;2023-03-01T09:37:53;5.50;97.10
26687;DHT22;14298;50.900;4.648;2023-03-01T09:40:24;6.30;97.10
26687;DHT22;14298;50.900;4.648;2023-03-01T09:42:55;6.30;97.10
26687;DHT22;14298;50.900;4.648;2023-03-01T09:45:35;6.10;97.10
26687;DHT22;14298;50.900;4.648;2023-03-01T09:48:09;5.50;97.10
26687;DHT22;14298;50.900;4.648;2023-03-01T09:50:39;5.40;97.10
26687;DHT22;14298;50.900;4.648;2023-03-01T09:53:14;5.20;97.10
26687;DHT22;14298;50.900;4.648;2023-03-01T09:58:57;6.20;97.10
26687;DHT22;14298;50.900;4.648;2023-03-01T10:10:29;4.10;97.10
26687;DHT22;14298;50.900;4.648;2023-03-01T10:12:58;4.00;97.10
26687;DHT22;14298;50.900;4.648;2023-03-01T10:18:23;3.70;97.10
26687;DHT22;14298;50.900;4.648;2023-03-01T10:21:18;3.70;97.10
26687;DHT22;14298;50.900;4.648;2023-03-01T10:23:43;3.60;97.10
26687;DHT22;14298;50.900;4.648;2023-03-01T10:29:12;4.10;97.10
26687;DHT22;14298;50.900;4.648;2023-03-01T10:31:48;3.90;97.10
26687;DHT22;14298;50.900;4.648;2023-03-01T10:34:33;4.00;97.10
26687;DHT22;14298;50.900;4.648;2023-03-01T10:37:19;3.80;97.10
26687;DHT22;14298;50.900;4.648;2023-03-01T10:40:06;3.90;97.10
26687;DHT22;14298;50.900;4.648;2023-03-01T10:42:50;4.00;97.10
26687;DHT22;14298;50.900;4.648;2023-03-01T10:51:04;4.20;97.10
26687;DHT22;14298;50.900;4.648;2023-03-01T10:56:11;4.50;97.10
26687;DHT22;14298;50.900;4.648;2023-03-01T11:01:36;4.70;97.10
26687;DHT22;14298;50.900;4.648;2023-03-01T11:06:59;4.90;97.10
26687;DHT22;14298;50.900;4.648;2023-03-01T11:09:33;4.70;97.10
26687;DHT22;14298;50.900;4.648;2023-03-01T11:12:14;4.90;97.10
26687;DHT22;14298;50.900;4.648;2023-03-01T11:14:51;4.90;97.10
26687;DHT22;14298;50.900;4.648;2023-03-01T11:20:18;5.10;97.10
26687;DHT22;14298;50.900;4.648;2023-03-01T11:22:50;5.20;97.10
26687;DHT22;14298;50.900;4.648;2023-03-01T11:25:40;5.20;97.10
26687;DHT22;14298;50.900;4.648;2023-03-01T11:28:12;5.20;97.10
26687;DHT22;14298;50.900;4.648;2023-03-01T11:38:50;5.30;97.10
26687;DHT22;14298;50.900;4.648;2023-03-01T11:41:21;5.40;97.10
26687;DHT22;14298;50.900;4.648;2023-03-01T11:43:59;5.50;97.10
26687;DHT22;14298;50.900;4.648;2023-03-01T12:00:45;5.60;97.10
26687;DHT22;14298;50.900;4.648;2023-03-01T12:06:12;5.60;97.10
26687;DHT22;14298;50.900;4.648;2023-03-01T12:20:47;5.50;97.10
26687;DHT22;14298;50.900;4.648;2023-03-01T12:31:44;5.70;97.10
26687;DHT22;14298;50.900;4.648;2023-03-01T12:40:20;5.60;97.10
26687;DHT22;14298;50.900;4.648;2023-03-01T12:51:40;5.70;97.10
26687;DHT22;14298;50.900;4.648;2023-03-01T12:54:33;5.90;97.10
26687;DHT22;14298;50.900;4.648;2023-03-01T12:57:24;5.80;97.10
26687;DHT22;14298;50.900;4.648;2023-03-01T13:02:49;5.90;97.10
26687;DHT22;14298;50.900;4.648;2023-03-01T13:17:02;6.20;97.10
26687;DHT22;14298;50.900;4.648;2023-03-01T13:19:30;6.10;97.10
26687;DHT22;14298;50.900;4.648;2023-03-01T13:22:30;6.30;97.10
26687;DHT22;14298;50.900;4.648;2023-03-01T13:27:54;6.30;97.10
26687;DHT22;14298;50.900;4.648;2023-03-01T13:33:39;6.40;97.10
26687;DHT22;14298;50.900;4.648;2023-03-01T13:39:04;6.30;97.10
26687;DHT22;14298;50.900;4.648;2023-03-01T13:41:53;6.40;97.10
26687;DHT22;14298;50.900;4.648;2023-03-01T13:47:16;6.20;97.10
26687;DHT22;14298;50.900;4.648;2023-03-01T13:49:48;6.40;97.10
26687;DHT22;14298;50.900;4.648;2023-03-01T13:52:43;6.30;97.10
26687;DHT22;14298;50.900;4.648;2023-03-01T13:58:44;6.50;97.10
26687;DHT22;14298;50.900;4.648;2023-03-01T14:01:31;6.30;97.10
26687;DHT22;14298;50.900;4.648;2023-03-01T14:04:01;6.30;97.10
26687;DHT22;14298;50.900;4.648;2023-03-01T14:06:33;6.50;97.10
26687;DHT22;14298;50.900;4.648;2023-03-01T14:09:23;6.60;97.10
26687;DHT22;14298;50.900;4.648;2023-03-01T14:14:36;6.60;97.10
26687;DHT22;14298;50.900;4.648;2023-03-01T14:23:02;6.50;97.10
26687;DHT22;14298;50.900;4.648;2023-03-01T14:25:33;6.60;97.10
26687;DHT22;14298;50.900;4.648;2023-03-01T14:30:50;6.70;97.10
26687;DHT22;14298;50.900;4.648;2023-03-01T14:33:31;6.70;97.10
26687;DHT22;14298;50.900;4.648;2023-03-01T14:36:06;6.70;97.10
26687;DHT22;14298;50.900;4.648;2023-03-01T14:38:40;6.80;97.10
26687;DHT22;14298;50.900;4.648;2023-03-01T14:41:11;6.60;97.10
26687;DHT22;14298;50.900;4.648;2023-03-01T14:43:44;6.70;97.10
26687;DHT22;14298;50.900;4.648;2023-03-01T14:46:25;6.70;97.10
26687;DHT22;14298;50.900;4.648;2023-03-01T14:48:57;6.70;97.10
26687;DHT22;14298;50.900;4.648;2023-03-01T14:51:25;6.70;97.10
26687;DHT22;14298;50.900;4.648;2023-03-01T14:53:54;6.80;97.10
26687;DHT22;14298;50.900;4.648;2023-03-01T14:56:23;6.80;97.10
26687;DHT22;14298;50.900;4.648;2023-03-01T14:58:53;6.90;97.10
26687;DHT22;14298;50.900;4.648;2023-03-01T15:01:22;6.80;97.10
26687;DHT22;14298;50.900;4.648;2023-03-01T15:03:51;6.70;97.10
26687;DHT22;14298;50.900;4.648;2023-03-01T15:06:21;6.60;97.10
26687;DHT22;14298;50.900;4.648;2023-03-01T15:08:53;6.60;97.10
26687;DHT22;14298;50.900;4.648;2023-03-01T15:17:03;6.70;97.10
26687;DHT22;14298;50.900;4.648;2023-03-01T15:19:32;6.70;97.10
26687;DHT22;14298;50.900;4.648;2023-03-01T15:22:00;6.70;97.10
26687;DHT22;14298;50.900;4.648;2023-03-01T15:24:30;6.80;97.10
26687;DHT22;14298;50.900;4.648;2023-03-01T15:27:00;6.80;97.10
26687;DHT22;14298;50.900;4.648;2023-03-01T15:29:32;6.80;97.10
26687;DHT22;14298;50.900;4.648;2023-03-01T15:32:05;6.80;97.10
26687;DHT22;14298;50.900;4.648;2023-03-01T15:34:35;6.70;97.10
26687;DHT22;14298;50.900;4.648;2023-03-01T15:37:15;6.70;97.10
26687;DHT22;14298;50.900;4.648;2023-03-01T15:39:43;6.80;97.10
26687;DHT22;14298;50.900;4.648;2023-03-01T15:47:59;6.60;97.10
26687;DHT22;14298;50.900;4.648;2023-03-01T15:50:34;6.70;97.10
26687;DHT22;14298;50.900;4.648;2023-03-01T15:53:06;6.70;97.10
26687;DHT22;14298;50.900;4.648;2023-03-01T15:55:35;6.60;97.10
26687;DHT22;14298;50.900;4.648;2023-03-01T15:58:12;6.60;97.10
26687;DHT22;14298;50.900;4.648;2023-03-01T16:00:42;6.60;97.10
26687;DHT22;14298;50.900;4.648;2023-03-01T16:03:11;6.50;97.10
26687;DHT22;14298;50.900;4.648;2023-03-01T16:05:40;6.50;97.10
26687;DHT22;14298;50.900;4.648;2023-03-01T16:08:08;6.50;97.10
26687;DHT22;14298;50.900;4.648;2023-03-01T16:10:37;6.50;97.10
26687;DHT22;14298;50.900;4.648;2023-03-01T16:13:05;6.50;97.10
26687;DHT22;14298;50.900;4.648;2023-03-01T16:15:35;6.50;97.10
26687;DHT22;14298;50.900;4.648;2023-03-01T16:18:04;6.40;97.10
26687;DHT22;14298;50.900;4.648;2023-03-01T16:20:33;6.40;97.10
26687;DHT22;14298;50.900;4.648;2023-03-01T16:23:04;6.40;97.10
26687;DHT22;14298;50.900;4.648;2023-03-01T16:25:34;6.40;97.10
26687;DHT22;14298;50.900;4.648;2023-03-01T16:28:03;6.30;97.10
26687;DHT22;14298;50.900;4.648;2023-03-01T16:30:33;6.30;97.10
26687;DHT22;14298;50.900;4.648;2023-03-01T16:33:03;6.30;97.10
26687;DHT22;14298;50.900;4.648;2023-03-01T16:35:33;6.20;97.10
26687;DHT22;14298;50.900;4.648;2023-03-01T16:38:01;6.20;97.10
26687;DHT22;14298;50.900;4.648;2023-03-01T16:40:30;6.20;97.10
26687;DHT22;14298;50.900;4.648;2023-03-01T16:42:59;6.10;97.10
26687;DHT22;14298;50.900;4.648;2023-03-01T16:45:33;6.10;97.10
26687;DHT22;14298;50.900;4.648;2023-03-01T16:48:04;6.10;97.10
26687;DHT22;14298;50.900;4.648;2023-03-01T16:50:32;6.10;97.10
26687;DHT22;14298;50.900;4.648;2023-03-01T16:53:01;6.00;97.10
26687;DHT22;14298;50.900;4.648;2023-03-01T16:55:29;6.00;97.10
26687;DHT22;14298;50.900;4.648;2023-03-01T16:57:58;5.90;97.10
26687;DHT22;14298;50.900;4.648;2023-03-01T17:00:26;5.90;97.10
26687;DHT22;14298;50.900;4.648;2023-03-01T17:02:55;5.90;97.10
26687;DHT22;14298;50.900;4.648;2023-03-01T17:05:23;5.90;97.10
26687;DHT22;14298;50.900;4.648;2023-03-01T17:07:53;5.80;97.10
26687;DHT22;14298;50.900;4.648;2023-03-01T17:10:23;5.70;97.10
26687;DHT22;14298;50.900;4.648;2023-03-01T17:12:51;5.60;97.10
26687;DHT22;14298;50.900;4.648;2023-03-01T17:15:20;5.60;97.10
26687;DHT22;14298;50.900;4.648;2023-03-01T17:17:49;5.60;97.10
26687;DHT22;14298;50.900;4.648;2023-03-01T17:22:58;5.50;97.10
26687;DHT22;14298;50.900;4.648;2023-03-01T17:25:27;5.40;97.10
26687;DHT22;14298;50.900;4.648;2023-03-01T17:27:55;5.50;97.10
26687;DHT22;14298;50.900;4.648;2023-03-01T17:30:24;5.30;97.10
26687;DHT22;14298;50.900;4.648;2023-03-01T17:32:52;5.20;97.10
26687;DHT22;14298;50.900;4.648;2023-03-01T17:35:22;5.10;97.10
26687;DHT22;14298;50.900;4.648;2023-03-01T17:37:50;5.10;97.10
26687;DHT22;14298;50.900;4.648;2023-03-01T17:40:19;5.20;97.10
26687;DHT22;14298;50.900;4.648;2023-03-01T17:42:47;5.10;97.10
26687;DHT22;14298;50.900;4.648;2023-03-01T17:45:15;5.00;97.10
26687;DHT22;14298;50.900;4.648;2023-03-01T17:47:44;5.10;97.10
26687;DHT22;14298;50.900;4.648;2023-03-01T17:50:12;5.00;97.10
26687;DHT22;14298;50.900;4.648;2023-03-01T17:52:40;5.00;97.10
26687;DHT22;14298;50.900;4.648;2023-03-01T17:55:09;4.90;97.10
26687;DHT22;14298;50.900;4.648;2023-03-01T17:57:41;4.80;97.10
26687;DHT22;14298;50.900;4.648;2023-03-01T18:00:11;4.70;97.10
26687;DHT22;14298;50.900;4.648;2023-03-01T18:02:41;4.70;97.10
26687;DHT22;14298;50.900;4.648;2023-03-01T18:05:10;4.70;97.10
26687;DHT22;14298;50.900;4.648;2023-03-01T18:07:38;4.60;97.10
26687;DHT22;14298;50.900;4.648;2023-03-01T18:10:07;4.60;97.10
26687;DHT22;14298;50.900;4.648;2023-03-01T18:12:36;4.50;97.10
26687;DHT22;14298;50.900;4.648;2023-03-01T18:15:07;4.50;97.10
26687;DHT22;14298;50.900;4.648;2023-03-01T18:17:35;4.40;97.10
26687;DHT22;14298;50.900;4.648;2023-03-01T18:20:05;4.30;97.10
26687;DHT22;14298;50.900;4.648;2023-03-01T18:22:33;4.20;97.10
26687;DHT22;14298;50.900;4.648;2023-03-01T18:27:43;4.10;97.10
26687;DHT22;14298;50.900;4.648;2023-03-01T18:30:13;4.00;97.10
26687;DHT22;14298;50.900;4.648;2023-03-01T18:32:42;3.90;97.10
26687;DHT22;14298;50.900;4.648;2023-03-01T18:35:11;3.90;97.10
26687;DHT22;14298;50.900;4.648;2023-03-01T18:37:40;3.90;97.10
26687;DHT22;14298;50.900;4.648;2023-03-01T18:40:09;3.80;97.10
26687;DHT22;14298;50.900;4.648;2023-03-01T18:42:39;3.50;97.10